Time;durP1;ratioP1;P1;durP2;ratioP2;P2;SDS_P1;SDS_P2;PMS_P1;PMS_P2;Temp;Humidity;BMP_temperature;BMP_pressure;BME280_temperature;BME280_humidity;BME280_pressure;Samples;Min_cycle;Max_cycle;Signal;HPM_P1;HPM_P2
2021/06/15 00:00:43;;;;;;;11.37;6.50;;;18.00;13.60;19.40;100702.00;;;;5051842;28;20504;-79
2021/06/15 00:03:12;;;;;;;10.40;7.07;;;18.00;14.90;19.40;100687.00;;;;5052486;28;20504;-79
2021/06/15 00:05:40;;;;;;;11.20;7.13;;;18.00;14.70;19.40;100707.00;;;;5048897;28;20436;-79
2021/06/15 00:08:09;;;;;;;11.10;6.90;;;18.10;14.70;19.40;100699.00;;;;5048551;28;20425;-78
2021/06/15 00:10:39;;;;;;;12.18;7.30;;;18.00;15.50;19.30;100678.00;;;;5061978;28;20440;-78
2021/06/15 00:13:07;;;;;;;10.60;7.05;;;18.00;15.50;19.30;100694.00;;;;5061651;28;20425;-78
2021/06/15 00:15:36;;;;;;;10.90;7.40;;;18.00;15.80;19.30;100693.00;;;;5042708;28;20433;-78
2021/06/15 00:18:05;;;;;;;10.40;7.40;;;18.00;16.60;19.20;100711.00;;;;5043278;28;20521;-78
2021/06/15 00:20:34;;;;;;;12.20;7.40;;;17.90;16.90;19.10;100691.00;;;;5060816;28;20933;-78
2021/06/15 00:23:04;;;;;;;11.32;7.18;;;17.80;17.20;19.10;100701.00;;;;5056814;28;20861;-78
2021/06/15 00:25:33;;;;;;;10.25;7.03;;;17.80;17.50;19.10;100702.00;;;;5060183;28;20479;-78
2021/06/15 00:28:05;;;;;;;9.93;6.90;;;17.80;18.10;19.00;100700.00;;;;5046223;28;20504;-79
2021/06/15 00:30:35;;;;;;;10.85;7.28;;;17.70;18.40;19.00;100706.00;;;;5044135;28;20432;-78
2021/06/15 00:33:03;;;;;;;10.70;7.50;;;17.60;19.00;19.00;100687.00;;;;5050746;28;20443;-78
2021/06/15 00:35:32;;;;;;;10.10;7.30;;;17.60;19.30;18.90;100709.00;;;;5061639;28;20508;-78
2021/06/15 00:38:00;;;;;;;12.07;7.50;;;17.50;19.60;18.90;100700.00;;;;5054461;28;20521;-78
2021/06/15 00:40:29;;;;;;;12.93;8.00;;;17.50;20.10;18.90;100703.00;;;;5062413;28;20425;-78
2021/06/15 00:42:58;;;;;;;12.05;8.10;;;17.60;20.00;18.90;100670.00;;;;5062612;28;20499;-78
2021/06/15 00:45:32;;;;;;;10.10;7.90;;;17.50;20.20;18.80;100706.00;;;;5061333;28;20452;-78
2021/06/15 00:48:02;;;;;;;12.05;8.93;;;17.50;20.60;18.70;100693.00;;;;5044728;28;20425;-78
2021/06/15 00:50:33;;;;;;;14.50;7.60;;;17.30;20.90;18.70;100696.00;;;;5044383;28;20968;-78
2021/06/15 00:53:02;;;;;;;11.18;7.63;;;17.30;21.80;18.70;100664.00;;;;5057863;28;20512;-78
2021/06/15 00:55:30;;;;;;;14.13;7.30;;;17.30;21.50;18.70;100689.00;;;;5087243;28;20413;-78
2021/06/15 00:57:59;;;;;;;13.50;7.28;;;17.30;21.50;18.70;100689.00;;;;5083560;28;20433;-77
2021/06/15 01:00:29;;;;;;;12.90;7.67;;;17.30;21.90;18.50;100693.00;;;;5053832;28;20506;-76
2021/06/15 01:02:58;;;;;;;14.20;7.90;;;17.30;22.40;18.50;100663.00;;;;5064196;28;20440;-77
2021/06/15 01:05:28;;;;;;;10.70;7.20;;;17.20;22.60;18.50;100683.00;;;;5047681;28;20425;-77
2021/06/15 01:08:05;;;;;;;12.43;7.90;;;17.20;22.70;18.50;100693.00;;;;5051187;28;20593;-77
2021/06/15 01:10:46;;;;;;;13.00;8.10;;;17.20;22.80;18.40;100684.00;;;;5051479;28;20449;-77
2021/06/15 01:13:30;;;;;;;8.60;7.13;;;17.10;23.20;18.40;100697.00;;;;5064500;28;20433;-77
2021/06/15 01:16:08;;;;;;;11.20;7.80;;;17.10;23.40;18.40;100688.00;;;;5056218;28;20423;-79
2021/06/15 01:18:43;;;;;;;9.45;7.43;;;17.10;23.40;18.40;100689.00;;;;5070339;28;20425;-78
2021/06/15 01:21:14;;;;;;;9.68;7.75;;;17.10;23.40;18.40;100681.00;;;;5068997;28;20397;-78
2021/06/15 01:24:14;;;;;;;11.30;8.67;;;17.00;23.70;18.30;100693.00;;;;5063240;28;20521;-78
2021/06/15 01:27:06;;;;;;;12.00;8.63;;;17.00;24.00;18.20;100683.00;;;;5065552;28;20443;-78
2021/06/15 01:29:39;;;;;;;9.73;8.10;;;16.90;23.60;18.20;100686.00;;;;5065640;28;20924;-79
2021/06/15 01:32:14;;;;;;;9.95;7.85;;;16.90;23.70;18.20;100695.00;;;;5080831;28;20463;-78
2021/06/15 01:34:45;;;;;;;14.38;8.85;;;17.00;23.80;18.20;100692.00;;;;5062538;28;20436;-79
2021/06/15 01:37:17;;;;;;;11.57;8.10;;;16.90;23.50;18.20;100694.00;;;;5053499;28;20425;-78
2021/06/15 01:39:51;;;;;;;10.48;8.10;;;16.90;24.30;18.20;100700.00;;;;5044606;28;20420;-78
2021/06/15 01:42:31;;;;;;;10.20;8.02;;;16.90;24.70;18.10;100691.00;;;;5059650;28;20422;-77
2021/06/15 01:45:09;;;;;;;13.80;8.45;;;16.80;24.50;18.10;100670.00;;;;5059070;28;20421;-78
2021/06/15 01:47:43;;;;;;;12.53;8.70;;;16.70;24.70;18.10;100692.00;;;;5044895;28;20515;-78
2021/06/15 01:50:13;;;;;;;13.93;8.38;;;16.70;25.40;18.10;100682.00;;;;5043329;28;20467;-78
2021/06/15 01:52:43;;;;;;;11.00;8.40;;;16.70;25.60;18.00;100683.00;;;;5046363;28;20471;-78
2021/06/15 01:55:13;;;;;;;11.40;8.95;;;16.70;25.90;18.00;100701.00;;;;5042973;28;20425;-78
2021/06/15 01:57:54;;;;;;;11.07;8.43;;;16.60;25.80;17.90;100697.00;;;;5061122;28;20436;-78
2021/06/15 02:00:26;;;;;;;10.60;8.43;;;16.60;26.50;17.90;100686.00;;;;5047500;28;20422;-78
2021/06/15 02:03:02;;;;;;;11.10;8.90;;;16.60;26.60;17.90;100693.00;;;;5048021;28;20435;-78
2021/06/15 02:05:39;;;;;;;10.65;8.70;;;16.60;26.80;17.90;100698.00;;;;5048962;28;20429;-79
2021/06/15 02:08:15;;;;;;;10.80;8.85;;;16.60;26.90;17.90;100671.00;;;;5045710;28;81588;-78
2021/06/15 02:10:46;;;;;;;11.50;8.50;;;16.60;27.00;17.90;100689.00;;;;5040852;28;20417;-79
2021/06/15 02:13:44;;;;;;;12.75;8.75;;;16.60;27.20;17.80;100680.00;;;;5066112;28;20448;-79
2021/06/15 02:16:33;;;;;;;10.77;8.85;;;16.50;26.90;17.70;100687.00;;;;5067516;28;20429;-78
2021/06/15 02:19:26;;;;;;;12.40;8.87;;;16.50;27.10;17.70;100670.00;;;;5066891;28;20456;-78
2021/06/15 02:22:02;;;;;;;11.80;8.30;;;16.50;27.10;17.70;100689.00;;;;5067891;28;20425;-77
2021/06/15 02:24:37;;;;;;;13.05;8.98;;;16.50;27.10;17.70;100686.00;;;;5071217;28;20495;-78
2021/06/15 02:27:09;;;;;;;11.02;8.68;;;16.50;27.10;17.80;100667.00;;;;5074186;28;20432;-79
2021/06/15 02:29:39;;;;;;;11.40;8.65;;;16.60;26.60;17.80;100669.00;;;;5065654;28;20445;-79
2021/06/15 02:32:12;;;;;;;11.68;8.65;;;16.60;26.40;17.80;100680.00;;;;5063534;28;20447;-79
2021/06/15 02:34:47;;;;;;;14.00;8.87;;;16.60;26.80;17.80;100684.00;;;;5079536;28;20456;-79
2021/06/15 02:37:23;;;;;;;10.23;8.32;;;16.60;26.80;17.70;100685.00;;;;5060345;28;20437;-78
2021/06/15 02:39:52;;;;;;;10.98;8.70;;;16.60;26.60;17.80;100678.00;;;;5058992;28;20459;-79
2021/06/15 02:42:22;;;;;;;11.20;9.50;;;16.60;26.70;17.80;100685.00;;;;5058686;28;20477;-78
2021/06/15 02:44:54;;;;;;;13.30;9.40;;;16.70;26.90;17.70;100681.00;;;;5058294;28;20426;-78
2021/06/15 02:47:26;;;;;;;10.90;9.27;;;16.60;26.90;17.70;100676.00;;;;5054962;28;20425;-78
2021/06/15 02:49:59;;;;;;;13.82;8.90;;;16.60;27.20;17.70;100685.00;;;;5057087;28;20445;-78
2021/06/15 02:52:37;;;;;;;14.10;9.73;;;16.60;27.20;17.60;100683.00;;;;5073380;28;20417;-78
2021/06/15 02:55:13;;;;;;;16.48;10.35;;;16.40;27.00;17.50;100692.00;;;;5072349;28;20456;-78
2021/06/15 02:57:43;;;;;;;13.75;10.00;;;16.30;28.00;17.50;100689.00;;;;5071482;28;20456;-79
2021/06/15 03:00:14;;;;;;;11.57;9.50;;;16.20;29.00;17.50;100687.00;;;;5055292;28;20481;-78
2021/06/15 03:02:44;;;;;;;14.30;9.70;;;16.20;28.80;17.50;100683.00;;;;5056959;28;20424;-78
2021/06/15 03:05:17;;;;;;;12.90;8.95;;;16.20;28.50;17.50;100690.00;;;;5049353;28;20424;-78
2021/06/15 03:07:49;;;;;;;15.00;9.73;;;16.30;28.40;17.50;100680.00;;;;5064918;28;20433;-78
2021/06/15 03:10:20;;;;;;;12.30;9.53;;;16.30;28.50;17.50;100688.00;;;;5047722;28;20456;-77
2021/06/15 03:12:54;;;;;;;12.70;9.10;;;16.30;28.60;17.40;100664.00;;;;5049710;28;20464;-78
2021/06/15 03:15:37;;;;;;;15.20;9.60;;;16.30;28.70;17.40;100701.00;;;;5064867;28;20449;-79
2021/06/15 03:18:11;;;;;;;11.50;9.15;;;16.20;28.80;17.40;100651.00;;;;5063881;28;20445;-78
2021/06/15 03:20:42;;;;;;;19.40;11.00;;;16.20;29.30;17.40;100698.00;;;;5048612;28;20514;-78
2021/06/15 03:23:17;;;;;;;20.55;10.00;;;16.20;28.80;17.40;100653.00;;;;5045611;28;20750;-78
2021/06/15 03:25:46;;;;;;;16.13;11.25;;;16.10;29.30;17.40;100702.00;;;;5047560;28;20431;-78
2021/06/15 03:28:24;;;;;;;14.82;10.00;;;16.20;29.30;17.40;100689.00;;;;5046542;28;20930;-78
2021/06/15 03:30:59;;;;;;;14.75;10.32;;;16.10;29.40;17.40;100693.00;;;;5063224;28;20433;-78
2021/06/15 03:33:30;;;;;;;13.82;10.05;;;16.10;29.40;17.40;100688.00;;;;5048185;28;20425;-78
2021/06/15 03:36:02;;;;;;;15.25;10.60;;;16.20;29.40;17.40;100688.00;;;;5061355;28;20456;-78
2021/06/15 03:38:33;;;;;;;13.10;10.10;;;16.10;29.30;17.40;100647.00;;;;5045922;28;20421;-79
2021/06/15 03:41:04;;;;;;;12.07;10.00;;;16.10;29.20;17.40;100682.00;;;;5045900;28;20425;-78
2021/06/15 03:43:35;;;;;;;13.27;10.20;;;16.20;29.10;17.40;100670.00;;;;5046668;28;20933;-78
2021/06/15 03:46:09;;;;;;;15.73;9.95;;;16.30;29.10;17.40;100702.00;;;;5048555;28;20937;-79
2021/06/15 03:48:42;;;;;;;16.70;11.05;;;16.20;28.70;17.50;100711.00;;;;5046639;28;20436;-79
2021/06/15 03:51:13;;;;;;;20.02;10.50;;;16.10;28.70;17.50;100710.00;;;;5049757;28;20417;-80
2021/06/15 03:53:42;;;;;;;16.55;10.07;;;16.20;29.10;17.60;100697.00;;;;5056575;28;20453;-79
2021/06/15 03:56:11;;;;;;;15.27;10.00;;;16.20;28.60;17.60;100661.00;;;;5065553;28;20496;-79
2021/06/15 03:58:40;;;;;;;13.75;9.95;;;16.30;28.50;17.60;100703.00;;;;5058865;28;20429;-79
2021/06/15 04:01:14;;;;;;;19.60;10.15;;;16.30;27.90;17.70;100709.00;;;;5050321;28;20448;-79
2021/06/15 04:03:46;;;;;;;15.40;9.80;;;16.40;27.70;17.80;100650.00;;;;5049274;28;20425;-79
2021/06/15 04:06:15;;;;;;;15.30;9.40;;;16.40;27.00;17.80;100685.00;;;;5064023;28;20436;-78
2021/06/15 04:08:45;;;;;;;15.52;9.32;;;16.50;27.20;17.90;100673.00;;;;5067228;28;20921;-78
2021/06/15 04:11:13;;;;;;;16.23;9.20;;;16.60;26.60;18.00;100710.00;;;;5066765;28;20492;-79
2021/06/15 04:13:44;;;;;;;13.77;9.15;;;16.80;26.10;18.10;100710.00;;;;5075085;28;20481;-80
2021/06/15 04:16:13;;;;;;;16.30;9.00;;;16.80;25.50;18.20;100711.00;;;;5063196;28;20504;-77
2021/06/15 04:18:45;;;;;;;16.85;9.40;;;17.00;25.00;18.30;100717.00;;;;5054731;28;20417;-78
2021/06/15 04:21:15;;;;;;;14.90;9.07;;;17.10;24.60;18.40;100706.00;;;;5069340;28;21269;-79
2021/06/15 04:23:50;;;;;;;13.43;9.23;;;17.20;24.20;18.50;100703.00;;;;5052485;28;20459;-76
2021/06/15 04:26:18;;;;;;;11.98;8.63;;;17.20;23.80;18.50;100711.00;;;;5058716;28;20437;-77
2021/06/15 04:28:47;;;;;;;17.90;9.27;;;17.30;23.30;18.60;100711.00;;;;5051869;28;20898;-77
2021/06/15 04:31:18;;;;;;;15.73;9.00;;;17.40;23.00;18.60;100714.00;;;;5050436;28;20772;-76
2021/06/15 04:33:52;;;;;;;14.27;8.52;;;17.40;22.70;18.60;100718.00;;;;5063717;28;20433;-77
2021/06/15 04:36:22;;;;;;;10.70;7.80;;;17.50;22.30;18.60;100722.00;;;;5049376;28;20421;-78
2021/06/15 04:39:00;;;;;;;11.88;8.13;;;17.50;21.60;18.70;100721.00;;;;5053303;28;20493;-76
2021/06/15 04:41:34;;;;;;;12.05;7.75;;;17.50;21.40;18.70;100694.00;;;;5047377;28;20472;-77
2021/06/15 04:44:05;;;;;;;12.10;8.20;;;17.50;20.70;18.70;100732.00;;;;5044552;28;20508;-77
2021/06/15 04:46:39;;;;;;;11.40;8.40;;;17.60;20.60;18.70;100697.00;;;;5049245;28;20855;-77
2021/06/15 04:49:17;;;;;;;14.95;8.00;;;17.60;19.80;18.70;100722.00;;;;5046884;28;20448;-77
2021/06/15 04:51:47;;;;;;;11.23;7.80;;;17.80;19.50;19.10;100720.00;;;;5047495;28;20421;-77
2021/06/15 04:54:22;;;;;;;11.87;7.23;;;17.90;17.90;19.20;100719.00;;;;5063260;28;20533;-77
2021/06/15 04:56:52;;;;;;;11.85;7.57;;;18.10;17.80;19.40;100679.00;;;;5060812;28;20426;-77
2021/06/15 04:59:23;;;;;;;10.00;7.07;;;18.20;17.60;19.60;100727.00;;;;5048692;28;20493;-75
2021/06/15 05:01:51;;;;;;;10.83;7.53;;;18.50;17.00;19.70;100726.00;;;;5048230;28;20419;-78
2021/06/15 05:04:21;;;;;;;11.93;7.15;;;18.60;16.00;19.90;100698.00;;;;5052520;28;20426;-76
2021/06/15 05:06:50;;;;;;;13.20;7.75;;;18.80;14.80;20.00;100713.00;;;;5048481;28;20421;-76
2021/06/15 05:09:24;;;;;;;10.45;6.30;;;18.80;13.20;20.10;100721.00;;;;5047478;28;20429;-77
2021/06/15 05:11:55;;;;;;;12.18;6.85;;;19.00;12.00;20.30;100664.00;;;;5049270;28;20905;-77
2021/06/15 05:14:28;;;;;;;10.68;6.70;;;19.10;10.50;20.30;100735.00;;;;5044597;28;20422;-77
2021/06/15 05:16:57;;;;;;;9.98;6.32;;;19.20;8.70;20.40;100735.00;;;;5046942;28;20519;-79
2021/06/15 05:19:27;;;;;;;9.63;7.47;;;19.40;8.80;20.50;100736.00;;;;5044974;28;20436;-77
2021/06/15 05:22:03;;;;;;;12.32;7.30;;;19.40;7.80;20.50;100748.00;;;;5063614;28;20469;-78
2021/06/15 05:24:51;;;;;;;12.73;6.93;;;19.50;8.90;20.80;100751.00;;;;5061683;28;20425;-78
2021/06/15 05:27:22;;;;;;;13.65;7.75;;;19.60;8.40;20.80;100745.00;;;;5045781;28;21021;-78
2021/06/15 05:29:51;;;;;;;11.43;7.00;;;19.70;7.60;21.00;100729.00;;;;5050878;28;20445;-78
2021/06/15 05:32:27;;;;;;;14.30;6.80;;;19.90;6.60;21.00;100728.00;;;;5065062;28;20475;-76
2021/06/15 05:34:57;;;;;;;9.85;6.60;;;19.90;5.50;21.10;100758.00;;;;5065910;28;20410;-77
2021/06/15 05:37:26;;;;;;;10.40;6.90;;;20.00;5.00;21.10;100756.00;;;;5050751;28;20451;-77
2021/06/15 05:39:56;;;;;;;12.77;6.90;;;20.00;4.50;21.20;100714.00;;;;5065885;28;20425;-76
2021/06/15 05:42:25;;;;;;;10.90;7.57;;;20.10;4.70;21.20;100716.00;;;;5048698;28;20421;-76
2021/06/15 05:44:55;;;;;;;10.18;7.90;;;20.10;4.10;21.30;100736.00;;;;5050192;28;20412;-76
2021/06/15 05:47:23;;;;;;;11.85;7.47;;;20.20;3.90;21.40;100760.00;;;;5048965;28;20809;-78
2021/06/15 05:49:52;;;;;;;15.52;7.80;;;20.30;3.50;21.50;100750.00;;;;5048380;28;20414;-78
2021/06/15 05:52:22;;;;;;;12.05;7.90;;;20.40;1.80;21.50;100763.00;;;;5054907;28;21063;-78
2021/06/15 05:54:51;;;;;;;11.90;8.68;;;20.50;1.50;21.40;100766.00;;;;5053045;28;20417;-79
2021/06/15 05:57:19;;;;;;;18.65;12.05;;;20.50;1.00;21.50;100775.00;;;;5053800;28;20818;-78
2021/06/15 05:59:47;;;;;;;14.75;8.80;;;20.50;1.20;21.40;100774.00;;;;5053579;28;20973;-78
2021/06/15 06:02:16;;;;;;;15.13;8.50;;;20.40;1.80;21.30;100767.00;;;;5049452;28;20474;-78
2021/06/15 06:05:01;;;;;;;16.00;8.15;;;20.50;2.70;21.30;100778.00;;;;5067985;28;20417;-77
2021/06/15 15:16:24;;;;;;;7.90;5.45;;;38.80;1.00;44.00;100659.00;;;;5020909;28;20427;-83
2021/06/15 15:18:54;;;;;;;6.63;5.80;;;39.30;1.00;43.70;100670.00;;;;5020801;28;20427;-80
2021/06/15 15:21:25;;;;;;;8.75;5.32;;;38.90;1.00;43.50;100661.00;;;;5036654;28;20421;-80
2021/06/15 15:23:56;;;;;;;8.60;5.60;;;38.50;1.00;43.20;100651.00;;;;5017697;28;20431;-79
2021/06/15 15:26:28;;;;;;;7.20;5.53;;;38.50;1.00;43.40;100661.00;;;;5018925;28;20451;-83
2021/06/15 15:28:58;;;;;;;6.75;5.28;;;38.60;1.00;42.60;100661.00;;;;5026123;28;20458;-81
2021/06/15 15:31:31;;;;;;;8.93;5.50;;;38.50;1.00;42.40;100657.00;;;;5007144;28;20877;-81
2021/06/15 15:34:01;;;;;;;8.10;5.07;;;38.50;1.00;42.50;100656.00;;;;5021590;28;20478;-82
2021/06/15 15:36:30;;;;;;;7.88;5.28;;;38.50;1.00;42.70;100650.00;;;;5029343;28;20429;-84
2021/06/15 15:38:59;;;;;;;7.88;5.32;;;38.70;1.00;43.30;100651.00;;;;5022502;28;20448;-82
2021/06/15 15:41:29;;;;;;;6.60;5.10;;;39.00;1.00;43.40;100642.00;;;;5028029;28;20510;-83
2021/06/15 15:44:00;;;;;;;7.40;5.07;;;39.20;1.00;43.80;100644.00;;;;5019471;28;20516;-80
2021/06/15 15:46:30;;;;;;;8.13;5.15;;;39.50;1.00;43.90;100653.00;;;;5035697;28;20553;-81
2021/06/15 15:48:59;;;;;;;8.63;5.10;;;39.70;1.00;43.60;100650.00;;;;5020298;28;20440;-80
2021/06/15 15:51:28;;;;;;;7.22;5.10;;;39.60;1.00;43.50;100649.00;;;;5018589;28;20524;-80
2021/06/15 15:53:57;;;;;;;7.55;4.78;;;39.80;1.00;43.10;100638.00;;;;5017668;28;20425;-79
2021/06/15 15:56:25;;;;;;;7.07;5.20;;;39.40;1.00;43.10;100644.00;;;;5009563;28;20504;-80
2021/06/15 15:58:54;;;;;;;7.70;5.70;;;39.30;1.00;43.50;100641.00;;;;5018126;28;20415;-81
2021/06/15 16:01:23;;;;;;;7.88;5.13;;;39.40;1.00;43.10;100648.00;;;;5017049;28;20466;-81
2021/06/15 16:03:52;;;;;;;6.75;5.00;;;39.10;1.00;42.40;100633.00;;;;5016155;28;20437;-82
2021/06/15 16:06:21;;;;;;;6.45;5.07;;;38.80;1.00;42.60;100634.00;;;;5017610;28;20438;-80
2021/06/15 16:08:49;;;;;;;8.60;5.50;;;39.00;1.00;42.30;100645.00;;;;5020585;28;20793;-81
2021/06/15 16:11:18;;;;;;;6.50;5.00;;;38.70;1.00;41.50;100645.00;;;;5020228;28;20573;-81
2021/06/15 16:13:46;;;;;;;7.32;5.20;;;38.40;1.00;41.40;100635.00;;;;5019814;28;20939;-80
2021/06/15 16:16:18;;;;;;;7.15;5.20;;;38.40;1.00;41.70;100641.00;;;;5019864;28;20470;-81
2021/06/15 16:18:47;;;;;;;6.20;4.70;;;38.60;1.00;42.20;100631.00;;;;5017445;28;20431;-80
2021/06/15 16:21:17;;;;;;;6.10;5.00;;;38.90;1.00;42.80;100633.00;;;;5017815;28;20470;-81
2021/06/15 16:23:45;;;;;;;6.95;4.55;;;39.50;1.00;42.90;100639.00;;;;5034410;28;21146;-80
2021/06/15 16:26:14;;;;;;;7.07;4.55;;;39.70;1.00;41.40;100647.00;;;;5020064;28;21036;-81
2021/06/15 16:28:43;;;;;;;8.60;5.20;;;38.50;1.00;39.70;100641.00;;;;5016627;28;20431;-80
2021/06/15 16:31:11;;;;;;;8.50;5.10;;;36.90;1.00;38.50;100641.00;;;;5018449;28;20421;-81
2021/06/15 16:33:40;;;;;;;7.00;4.72;;;36.10;1.00;37.80;100624.00;;;;5019377;28;20914;-81
2021/06/15 16:36:08;;;;;;;8.25;5.00;;;35.70;1.00;38.40;100620.00;;;;5020635;28;20426;-81
2021/06/15 16:38:38;;;;;;;7.60;5.55;;;36.20;1.00;39.00;100624.00;;;;5018270;28;20428;-82
2021/06/15 16:41:06;;;;;;;6.37;4.90;;;36.60;1.00;39.60;100624.00;;;;5018994;28;20455;-82
2021/06/15 16:43:35;;;;;;;7.10;5.07;;;37.20;1.00;39.40;100623.00;;;;5017927;28;20427;-81
2021/06/15 16:46:03;;;;;;;7.20;5.20;;;37.10;1.00;39.30;100619.00;;;;5014338;28;20556;-82
2021/06/15 16:48:32;;;;;;;8.52;4.93;;;36.80;1.00;38.90;100631.00;;;;5033306;28;20423;-86
2021/06/15 16:51:13;;;;;;;8.15;5.25;;;36.40;1.00;38.00;100623.00;;;;5026200;28;20438;-82
2021/06/15 16:53:42;;;;;;;9.50;5.40;;;35.40;1.00;37.20;100621.00;;;;5035834;28;20463;-82
2021/06/15 16:56:11;;;;;;;7.00;5.20;;;34.80;1.00;36.40;100617.00;;;;5052316;28;20468;-81
2021/06/15 16:58:40;;;;;;;8.50;5.90;;;34.00;1.00;35.90;100623.00;;;;5039639;28;20429;-80
2021/06/15 17:01:09;;;;;;;7.80;5.68;;;33.50;1.00;35.40;100620.00;;;;5033097;28;20417;-80
2021/06/15 17:03:37;;;;;;;8.23;5.33;;;33.30;1.00;34.70;100612.00;;;;5046742;28;20206;-81
2021/06/15 17:06:06;;;;;;;8.33;5.50;;;32.80;1.00;34.10;100615.00;;;;5041957;28;20442;-82
2021/06/15 17:08:35;;;;;;;8.27;5.60;;;32.30;1.00;33.80;100611.00;;;;5048216;28;20449;-80
2021/06/15 17:11:05;;;;;;;6.80;5.30;;;32.00;1.00;33.40;100615.00;;;;5023814;28;20519;-80
2021/06/15 17:13:34;;;;;;;7.17;5.47;;;31.60;1.00;33.30;100615.00;;;;5022653;28;20465;-80
2021/06/15 17:16:04;;;;;;;7.30;6.00;;;31.50;1.00;33.30;100609.00;;;;5022617;28;20600;-81
2021/06/15 17:18:33;;;;;;;6.90;5.80;;;31.50;1.00;33.40;100614.00;;;;5021726;28;20500;-80
2021/06/15 17:21:01;;;;;;;7.40;5.60;;;31.50;1.00;33.40;100604.00;;;;5031067;28;20540;-81
2021/06/15 17:23:30;;;;;;;10.10;5.40;;;31.60;1.00;33.30;100608.00;;;;5020920;28;20484;-81
2021/06/15 17:25:58;;;;;;;12.33;5.80;;;31.50;1.00;33.20;100617.00;;;;5022337;28;20460;-80
2021/06/15 17:28:28;;;;;;;8.90;6.00;;;31.50;1.00;33.20;100609.00;;;;5022590;28;20453;-81
2021/06/15 17:30:57;;;;;;;7.43;5.40;;;31.60;1.00;33.10;100608.00;;;;5021208;28;20477;-80
2021/06/15 17:33:25;;;;;;;9.40;6.10;;;31.40;1.00;33.00;100613.00;;;;5019399;28;20490;-81
2021/06/15 17:35:54;;;;;;;8.73;6.20;;;31.20;1.00;32.80;100609.00;;;;5021436;28;20535;-82
2021/06/15 17:38:23;;;;;;;8.73;6.10;;;31.00;1.00;32.60;100595.00;;;;5016593;28;20523;-82
2021/06/15 17:40:52;;;;;;;9.38;6.10;;;30.90;1.00;32.50;100607.00;;;;5018131;28;20964;-81
2021/06/15 17:43:20;;;;;;;7.63;6.20;;;30.80;1.00;32.30;100614.00;;;;5016603;28;20411;-80
2021/06/15 17:45:50;;;;;;;8.20;6.40;;;30.80;1.00;32.10;100602.00;;;;5020480;28;20430;-80
2021/06/15 17:48:20;;;;;;;10.40;6.72;;;30.70;1.00;32.20;100599.00;;;;5043318;28;20432;-81
2021/06/15 17:50:48;;;;;;;8.50;6.40;;;30.60;1.00;32.20;100599.00;;;;5027744;28;20431;-80
2021/06/15 17:53:17;;;;;;;10.68;6.53;;;30.70;1.00;32.50;100592.00;;;;5027388;28;20438;-81
2021/06/15 17:55:46;;;;;;;8.10;6.50;;;31.10;1.00;32.70;100592.00;;;;5027234;28;20441;-82
2021/06/15 17:58:15;;;;;;;9.50;6.60;;;31.10;1.00;32.70;100597.00;;;;5027074;28;20428;-81
2021/06/15 18:00:45;;;;;;;9.45;7.30;;;31.20;1.00;32.40;100603.00;;;;5032183;28;20450;-83
2021/06/15 18:03:17;;;;;;;10.00;6.25;;;30.80;1.00;32.10;100599.00;;;;5048298;28;20422;-82
2021/06/15 18:05:49;;;;;;;10.35;6.90;;;30.50;1.00;32.00;100592.00;;;;5017993;28;20511;-83
2021/06/15 18:08:20;;;;;;;11.20;6.70;;;30.40;1.00;31.90;100590.00;;;;5023032;28;20430;-82
2021/06/15 18:10:49;;;;;;;10.07;6.97;;;30.20;1.00;31.80;100576.00;;;;5022953;28;20448;-81
2021/06/15 18:13:20;;;;;;;8.30;6.60;;;30.20;1.00;31.80;100580.00;;;;5025038;28;20503;-80
2021/06/15 18:15:48;;;;;;;11.05;7.10;;;30.20;1.00;31.60;100583.00;;;;5036936;28;20437;-82
2021/06/15 18:18:20;;;;;;;9.93;7.60;;;30.00;1.00;31.40;100589.00;;;;5021395;28;20544;-81
2021/06/15 18:20:49;;;;;;;10.23;7.90;;;29.80;1.00;31.40;100577.00;;;;5021368;28;20428;-82
2021/06/15 18:23:19;;;;;;;11.38;7.50;;;29.80;1.00;31.20;100583.00;;;;5024526;28;20403;-80
2021/06/15 18:25:48;;;;;;;11.35;7.00;;;29.70;1.00;31.10;100587.00;;;;5032733;28;20425;-81
2021/06/15 18:28:17;;;;;;;9.85;7.55;;;29.50;1.00;30.90;100586.00;;;;5020473;28;20467;-81
2021/06/15 18:30:45;;;;;;;12.80;8.32;;;29.40;1.00;30.80;100587.00;;;;5021526;28;20424;-79
2021/06/15 18:33:14;;;;;;;13.10;8.43;;;29.20;1.00;30.50;100576.00;;;;5021653;28;20532;-82
2021/06/15 18:35:45;;;;;;;9.30;7.90;;;28.90;1.00;30.30;100583.00;;;;5033468;28;20461;-79
2021/06/15 18:38:13;;;;;;;11.15;8.80;;;28.70;1.00;30.10;100586.00;;;;5027674;28;20429;-82
2021/06/15 18:40:42;;;;;;;9.48;7.75;;;28.50;1.00;29.90;100595.00;;;;5019996;28;20503;-82
2021/06/15 18:43:16;;;;;;;11.27;8.13;;;28.30;1.00;29.70;100593.00;;;;5021717;28;20534;-80
2021/06/15 18:45:46;;;;;;;11.35;8.18;;;28.20;1.00;29.50;100586.00;;;;5021809;28;20422;-80
2021/06/15 18:48:17;;;;;;;12.35;8.52;;;28.00;1.00;29.40;100593.00;;;;5023354;28;20430;-79
2021/06/15 18:50:48;;;;;;;10.97;8.80;;;27.90;1.00;29.30;100594.00;;;;5011494;28;20431;-80
2021/06/15 18:53:17;;;;;;;10.68;8.50;;;27.70;1.00;29.10;100592.00;;;;5040161;28;20428;-79
2021/06/15 18:55:46;;;;;;;10.23;8.00;;;27.60;1.00;28.90;100592.00;;;;5024401;28;20473;-80
2021/06/15 18:58:16;;;;;;;11.07;8.70;;;27.50;1.00;28.70;100594.00;;;;5026580;28;20496;-80
2021/06/15 19:00:44;;;;;;;10.80;8.00;;;27.40;1.00;28.50;100609.00;;;;4998749;28;20439;-80
2021/06/15 19:03:13;;;;;;;10.93;8.30;;;27.20;1.00;28.30;100604.00;;;;5020197;28;20436;-79
2021/06/15 19:05:42;;;;;;;8.80;7.90;;;27.10;1.00;28.30;100596.00;;;;5014507;28;20436;-81
2021/06/15 19:08:12;;;;;;;10.85;7.72;;;27.00;1.00;28.20;100610.00;;;;5039473;28;20511;-79
2021/06/15 19:10:41;;;;;;;10.90;8.85;;;26.80;1.00;28.00;100597.00;;;;5022448;28;20451;-79
2021/06/15 19:13:10;;;;;;;11.30;8.98;;;26.70;1.00;27.90;100591.00;;;;5028902;28;20429;-78
2021/06/15 19:15:38;;;;;;;11.57;8.30;;;26.60;1.00;27.70;100594.00;;;;5023230;28;20461;-80
2021/06/15 19:18:07;;;;;;;12.10;8.27;;;26.50;1.00;27.60;100594.00;;;;5015783;28;20423;-79
2021/06/15 19:20:35;;;;;;;10.80;8.30;;;26.40;1.00;27.60;100594.00;;;;5016721;28;20838;-81
2021/06/15 19:23:04;;;;;;;11.32;8.35;;;26.30;1.00;27.40;100605.00;;;;5027611;28;20510;-78
2021/06/15 19:25:34;;;;;;;9.63;8.10;;;26.20;1.00;27.30;100598.00;;;;5020178;28;20439;-79
2021/06/15 19:28:04;;;;;;;9.40;8.40;;;26.10;1.00;27.20;100596.00;;;;5021661;28;20476;-82
2021/06/15 19:30:34;;;;;;;9.68;8.15;;;25.90;1.00;27.10;100611.00;;;;5022801;28;20461;-80
2021/06/15 19:33:05;;;;;;;11.48;8.20;;;25.90;1.00;27.00;100598.00;;;;5037957;28;20481;-83
2021/06/15 19:35:34;;;;;;;10.93;8.90;;;25.80;1.00;26.80;100616.00;;;;5049527;28;20436;-79
2021/06/15 19:38:03;;;;;;;10.35;8.23;;;25.70;1.00;26.70;100597.00;;;;5030502;28;20948;-79
2021/06/15 19:40:33;;;;;;;11.77;8.85;;;25.60;1.00;26.60;100608.00;;;;5023536;28;20430;-79
2021/06/15 19:43:02;;;;;;;12.57;9.63;;;25.50;1.00;26.40;100604.00;;;;5040260;28;20451;-78
2021/06/15 19:45:31;;;;;;;10.27;8.43;;;25.40;1.00;26.30;100606.00;;;;5023308;28;20457;-80
2021/06/15 19:47:59;;;;;;;11.95;9.55;;;25.30;1.00;26.30;100614.00;;;;5020294;28;20419;-78
2021/06/15 19:50:28;;;;;;;11.55;8.95;;;25.20;1.00;26.20;100618.00;;;;5022171;28;20835;-80
2021/06/15 19:53:16;;;;;;;13.03;9.50;;;25.10;1.00;26.10;100622.00;;;;5035295;28;20519;-80
2021/06/15 19:55:46;;;;;;;11.48;9.65;;;25.00;1.00;26.00;100619.00;;;;5020734;28;20798;-80
2021/06/15 19:58:15;;;;;;;10.55;9.35;;;24.80;1.00;25.90;100623.00;;;;5017284;28;20420;-82
2021/06/15 20:00:43;;;;;;;11.05;9.82;;;24.80;1.00;25.80;100623.00;;;;5022266;28;20422;-78
2021/06/15 20:03:12;;;;;;;11.90;8.77;;;24.70;1.00;25.70;100626.00;;;;5021604;28;20820;-80
2021/06/15 20:05:41;;;;;;;10.35;8.75;;;24.70;1.00;25.70;100634.00;;;;5022874;28;20519;-80
2021/06/15 20:08:10;;;;;;;10.60;8.65;;;24.60;1.00;25.60;100643.00;;;;5017382;28;20473;-80
2021/06/15 20:10:38;;;;;;;9.70;8.20;;;24.50;1.00;25.50;100635.00;;;;5015672;28;20426;-81